Friday, November 24, 2017, 1:20 PM GMT
Back to Local

CWNQ, Nicolet Automatic Weather Reporting System

Location: , , Canada Lat: 46.217
Local Time: 1:20 PM GMT (13:20 GMT) Lon: -72.65
Time Zone: GMT Elev: 32 ft

Show me the last for .
Show Coded

Time T Td Feel RH Dir Speed Gust Alt SLP Vis Weather Sky Remarks
2017-11-24 13:00 32 25 27 74 360° 5 - - 29.89 0 None
2017-11-24 12:00 33 29 28 83 340° 6 - - 29.86 0 None
2017-11-24 11:00 34 29 26 83 230° 10 - - 29.85 0 None
2017-11-24 10:00 34 30 26 85 230° 9 - - 29.84 0 None
2017-11-24 09:00 31 29 24 91 210° 8 - - 29.83 0 None
2017-11-24 08:00 31 29 22 91 220° 12 - - 29.82 0 None
2017-11-24 07:00 32 29 23 90 210° 12 - - 29.82 0 None
2017-11-24 06:00 31 29 23 90 210° 9 - - 29.80 0 None
2017-11-24 05:00 30 28 23 92 210° 8 - - 29.81 0 None
2017-11-24 03:00 30 24 24 77 200° 6 - - 29.82 0 None
2017-11-24 02:00 29 22 22 73 200° 8 - - 29.83 0 None
2017-11-24 01:00 28 22 20 76 200° 8 - - 29.86 0 None
2017-11-24 00:00 28 20 19 72 200° 9 - - 29.88 0 None
2017-11-23 23:00 27 19 18 70 210° 9 - - 29.90 0 None
2017-11-23 22:00 27 19 18 71 200° 9 - - 29.90 0 None
2017-11-23 21:00 27 18 17 69 200° 9 - - 29.92 0 Peak wind: 19 mph (17 kts) from 210° at 16 min
2017-11-23 19:00 27 16 16 64 230° 12 - - 29.95 0 None
2017-11-23 17:00 25 15 14 63 230° 13 - - 30.00 0 None
2017-11-23 16:00 24 13 13 62 220° 10 - - 30.03 0 None
2017-11-23 15:00 23 14 11 68 220° 13 - - 30.07 0 None
2017-11-23 14:00 24 13 12 62 220° 13 - - 30.08 0 Peak wind: 19 mph (17 kts) from 220° at 23 min
1-hr Precip Total: 0.07"

Support USWX by starting your Amazon purchase here.